Terminal Aerodrome Forecast
Issued by NWS

Home | Current Version | Previous Version | Text Only | Print | Product List | Glossary On
Versions: 1 2 3 4 5 6 7 8 9 10 11 12 13 14 15 16 17
934
FTUS43 KAPX 101740
TAFMBL
TAF
KMBL 101740Z 1018/1118 28009KT P6SM -SHSN SCT017 BKN025
     FM102300 27005KT P6SM VCSH BKN025
     FM110800 VRB03KT 5SM -SN OVC022
     FM111000 13005KT 3SM -SN OVC018
     FM111300 13007KT 1 1/2SM -SN BR OVC012=

USA.gov is the U.S. government's official web portal to all federal, state and local government web resources and services.